Waltz, Michigan
Current Conditions -  °F | °C
As of 11:53 PM on Wednesday 26 Nov 2014 (Local Time) from KDTW Reporting Station
Light Snow Light Snow  
Wind Chill: 26°   Ceiling: 4500
Heat Index: 32°   Visibility: 9mi
Dew Point: 24°   Wind: 7mph
Humidity: 73%   Direction: 320°NW
Pressure: 30.09"   Gusts: NA
Location:  42.1166°N, 83.4023°W
Report Text: KDTW 270453Z 32006KT 9SM -SN SCT025 OVC045 00/M04 A3009 RMK AO2 SLP197 P0000 T00001044 400111017
Loading
Personal Weather Stations






























Interactive Weather Map New forecast layout! Learn more

10-Day Weather Forecast

Advertisements
Track Severe Weather on mobile